Time;durP1;ratioP1;P1;durP2;ratioP2;P2;SDS_P1;SDS_P2;PMS_P1;PMS_P2;Temp;Humidity;BMP_temperature;BMP_pressure;BME280_temperature;BME280_humidity;BME280_pressure;Samples;Min_cycle;Max_cycle;Signal;HPM_P1;HPM_P2
2024/04/06 00:00:20;;;;;;;2.53;1.90;;;15.50;99.90;;;;;;5115693;28;20187;-67
2024/04/06 00:02:46;;;;;;;1.80;1.60;;;15.50;99.90;;;;;;5115607;28;20850;-67
2024/04/06 00:05:12;;;;;;;1.90;1.63;;;15.50;99.90;;;;;;5115425;28;20213;-67
2024/04/06 00:07:39;;;;;;;4.63;2.13;;;15.50;99.90;;;;;;5115373;28;20988;-67
2024/04/06 00:10:05;;;;;;;2.27;1.40;;;15.50;99.90;;;;;;5115575;28;20217;-67
2024/04/06 00:12:32;;;;;;;1.60;1.50;;;15.50;99.90;;;;;;5115501;28;20539;-67
2024/04/06 00:14:59;;;;;;;1.80;1.30;;;15.60;99.90;;;;;;5115293;28;20491;-67
2024/04/06 00:17:26;;;;;;;2.07;1.97;;;15.60;99.90;;;;;;5115309;28;20450;-67
2024/04/06 00:19:52;;;;;;;2.20;1.70;;;15.60;99.90;;;;;;5115238;28;20451;-67
2024/04/06 00:22:18;;;;;;;4.10;1.60;;;15.60;99.90;;;;;;5115033;28;20457;-67
2024/04/06 00:24:44;;;;;;;2.40;2.23;;;15.60;99.90;;;;;;5115260;28;20202;-67
2024/04/06 00:27:10;;;;;;;1.87;1.77;;;15.60;99.90;;;;;;5115147;28;20548;-66
2024/04/06 00:29:36;;;;;;;2.07;1.83;;;15.60;99.90;;;;;;5115506;28;20276;-67
2024/04/06 00:32:04;;;;;;;1.93;1.70;;;15.60;99.90;;;;;;5115064;28;20559;-67
2024/04/06 00:34:30;;;;;;;1.50;1.40;;;15.60;99.90;;;;;;5114748;28;20219;-67
2024/04/06 00:36:56;;;;;;;1.80;1.70;;;15.60;99.90;;;;;;5114775;28;20544;-66
2024/04/06 00:39:22;;;;;;;1.80;1.60;;;15.60;99.90;;;;;;5115002;28;20524;-67
2024/04/06 00:41:48;;;;;;;1.67;1.57;;;15.50;99.90;;;;;;5114891;28;20499;-67
2024/04/06 00:44:15;;;;;;;2.70;1.70;;;15.50;99.90;;;;;;5114805;28;20183;-66
2024/04/06 00:46:41;;;;;;;1.80;1.70;;;15.50;99.90;;;;;;5114414;28;20508;-67
2024/04/06 00:49:08;;;;;;;1.80;1.70;;;15.50;99.90;;;;;;5114562;28;20537;-67
2024/04/06 00:51:35;;;;;;;1.90;1.80;;;15.40;99.90;;;;;;5114518;28;20455;-67
2024/04/06 00:54:01;;;;;;;2.20;1.87;;;15.40;99.90;;;;;;5114635;28;20487;-67
2024/04/06 00:56:27;;;;;;;2.47;1.70;;;15.40;99.90;;;;;;5114660;28;20460;-67
2024/04/06 00:58:53;;;;;;;3.87;2.07;;;15.40;99.90;;;;;;5114479;28;20449;-66
2024/04/06 01:01:20;;;;;;;2.60;1.73;;;15.30;99.90;;;;;;5114457;28;21027;-66
2024/04/06 01:03:46;;;;;;;2.47;1.93;;;15.30;99.90;;;;;;5114235;28;20280;-66
2024/04/06 01:06:13;;;;;;;4.43;1.73;;;15.20;99.90;;;;;;5114456;28;20583;-66
2024/04/06 01:08:40;;;;;;;2.93;1.90;;;15.20;99.90;;;;;;5114392;28;20285;-67
2024/04/06 01:11:06;;;;;;;1.90;1.63;;;15.20;99.90;;;;;;5114310;28;20453;-67
2024/04/06 01:13:32;;;;;;;4.40;2.00;;;15.10;99.90;;;;;;5114126;28;20809;-67
2024/04/06 01:15:58;;;;;;;1.73;1.60;;;15.10;99.90;;;;;;5114218;28;20444;-66
2024/04/06 01:18:24;;;;;;;1.80;1.70;;;15.10;99.90;;;;;;5114036;28;20191;-66
2024/04/06 01:20:53;;;;;;;3.00;1.80;;;15.10;99.90;;;;;;5113959;28;21007;-67
2024/04/06 01:23:20;;;;;;;2.17;2.00;;;15.00;99.90;;;;;;5114115;28;20227;-66
2024/04/06 01:25:48;;;;;;;1.87;1.77;;;15.00;99.90;;;;;;5113895;28;20938;-66
2024/04/06 01:28:14;;;;;;;3.10;2.23;;;15.00;99.90;;;;;;5113926;28;20472;-67
2024/04/06 01:30:40;;;;;;;1.70;1.60;;;15.00;99.90;;;;;;5113919;28;20865;-67
2024/04/06 01:33:06;;;;;;;3.33;2.10;;;15.00;99.90;;;;;;5113791;28;20231;-67
2024/04/06 01:35:32;;;;;;;2.23;1.90;;;15.00;99.90;;;;;;5113856;28;20482;-67
2024/04/06 01:37:58;;;;;;;2.53;1.93;;;15.00;99.90;;;;;;5113912;28;20191;-67
2024/04/06 01:40:24;;;;;;;2.90;1.70;;;14.90;99.90;;;;;;5113751;28;20540;-67
2024/04/06 01:42:51;;;;;;;2.93;1.73;;;14.90;99.90;;;;;;5113797;28;20195;-66
2024/04/06 01:45:17;;;;;;;2.30;1.60;;;14.80;99.90;;;;;;5113478;28;20459;-66
2024/04/06 01:47:43;;;;;;;1.63;1.53;;;14.90;99.90;;;;;;5113512;28;20446;-67
2024/04/06 01:50:10;;;;;;;3.20;2.10;;;14.90;99.90;;;;;;5113824;28;20554;-66
2024/04/06 01:52:35;;;;;;;1.90;1.80;;;14.80;99.90;;;;;;5113731;28;20216;-67
2024/04/06 01:55:03;;;;;;;2.30;2.17;;;14.80;99.90;;;;;;5113519;28;20522;-67
2024/04/06 01:57:29;;;;;;;1.90;1.80;;;14.80;99.90;;;;;;5113551;28;20286;-67
2024/04/06 01:59:57;;;;;;;2.13;1.90;;;14.80;99.90;;;;;;5112988;28;20545;-67
2024/04/06 02:02:23;;;;;;;2.27;1.90;;;14.80;99.90;;;;;;5113405;28;20207;-67
2024/04/06 02:04:49;;;;;;;1.67;1.57;;;14.80;99.90;;;;;;5113602;28;20539;-66
2024/04/06 02:07:15;;;;;;;1.70;1.47;;;14.80;99.90;;;;;;5113592;28;20188;-67
2024/04/06 02:09:42;;;;;;;2.00;1.90;;;14.80;99.90;;;;;;5113460;28;20452;-66
2024/04/06 02:12:08;;;;;;;2.20;2.00;;;14.70;99.90;;;;;;5113358;28;20276;-67
2024/04/06 02:14:35;;;;;;;1.83;1.50;;;14.70;99.90;;;;;;5113231;28;20478;-66
2024/04/06 02:17:03;;;;;;;2.57;1.90;;;14.70;99.90;;;;;;5113440;28;20454;-67
2024/04/06 02:19:29;;;;;;;1.87;1.77;;;14.70;99.90;;;;;;5113432;28;20455;-66
2024/04/06 02:21:55;;;;;;;2.47;1.97;;;14.70;99.90;;;;;;5113379;28;20529;-66
2024/04/06 02:24:22;;;;;;;3.20;2.03;;;14.70;99.90;;;;;;5113343;28;20488;-66
2024/04/06 02:26:48;;;;;;;2.13;1.90;;;14.70;99.90;;;;;;5113294;28;20191;-67
2024/04/06 02:29:15;;;;;;;2.97;2.37;;;14.60;99.90;;;;;;5113137;28;20534;-66
2024/04/06 02:31:41;;;;;;;1.90;1.80;;;14.60;99.90;;;;;;5113386;28;20539;-67
2024/04/06 02:34:09;;;;;;;1.80;1.70;;;14.60;99.90;;;;;;5113259;28;20468;-66
2024/04/06 02:36:35;;;;;;;2.57;1.87;;;14.60;99.90;;;;;;5113066;28;21063;-66
2024/04/06 02:39:02;;;;;;;2.67;2.10;;;14.60;99.90;;;;;;5113173;28;20546;-67
2024/04/06 02:41:28;;;;;;;1.97;1.70;;;14.60;99.90;;;;;;5113207;28;20192;-67
2024/04/06 02:43:54;;;;;;;3.43;2.23;;;14.50;99.90;;;;;;5112961;28;20514;-66
2024/04/06 02:46:20;;;;;;;2.90;2.30;;;14.50;99.90;;;;;;5113007;28;20254;-66
2024/04/06 02:48:47;;;;;;;5.03;1.80;;;14.50;99.90;;;;;;5113218;28;20487;-66
2024/04/06 02:51:14;;;;;;;1.90;1.60;;;14.50;99.90;;;;;;5113120;28;20190;-66
2024/04/06 02:53:40;;;;;;;2.70;2.10;;;14.50;99.90;;;;;;5112921;28;20460;-66
2024/04/06 02:56:06;;;;;;;2.07;1.77;;;14.50;99.90;;;;;;5112934;28;20533;-66
2024/04/06 02:58:33;;;;;;;2.57;1.53;;;14.50;99.90;;;;;;5112852;28;20487;-67
2024/04/06 03:00:58;;;;;;;2.53;1.90;;;14.40;99.90;;;;;;5113074;28;20439;-66
2024/04/06 03:03:25;;;;;;;3.70;2.10;;;14.40;99.90;;;;;;5113055;28;20544;-67
2024/04/06 03:05:50;;;;;;;1.87;1.77;;;14.40;99.90;;;;;;5112995;28;20193;-67
2024/04/06 03:08:18;;;;;;;2.47;1.63;;;14.40;99.90;;;;;;5112923;28;20534;-66
2024/04/06 03:10:44;;;;;;;1.70;1.60;;;14.40;99.90;;;;;;5113297;28;20243;-66
2024/04/06 03:13:10;;;;;;;2.00;1.80;;;14.40;99.90;;;;;;5116436;28;20493;-67
2024/04/06 03:15:36;;;;;;;2.57;1.70;;;14.40;99.90;;;;;;5116601;28;20222;-66
2024/04/06 03:18:03;;;;;;;2.70;2.50;;;14.40;99.90;;;;;;5116516;28;20554;-66
2024/04/06 03:20:29;;;;;;;2.30;2.00;;;14.40;99.90;;;;;;5116553;28;20573;-66
2024/04/06 03:23:00;;;;;;;2.10;1.90;;;14.40;99.90;;;;;;5116396;28;20455;-66
2024/04/06 03:25:27;;;;;;;1.80;1.70;;;14.40;99.90;;;;;;5116362;28;20229;-67
2024/04/06 03:27:54;;;;;;;5.03;2.37;;;14.40;99.90;;;;;;5116216;28;20456;-66
2024/04/06 03:30:19;;;;;;;2.47;2.37;;;14.40;99.90;;;;;;5116356;28;20444;-66
2024/04/06 03:32:46;;;;;;;3.27;3.00;;;14.40;99.90;;;;;;5116348;28;20534;-66
2024/04/06 03:35:12;;;;;;;2.43;2.23;;;14.40;99.90;;;;;;5116029;28;20232;-66
2024/04/06 03:37:38;;;;;;;2.50;2.40;;;14.40;99.90;;;;;;5116077;28;20895;-66
2024/04/06 03:40:06;;;;;;;3.00;1.80;;;14.40;99.90;;;;;;5115936;28;20186;-67
2024/04/06 03:42:34;;;;;;;1.97;1.87;;;14.40;99.90;;;;;;5116165;28;20472;-66
2024/04/06 03:45:00;;;;;;;2.67;1.80;;;14.40;99.90;;;;;;5116086;28;20461;-67
2024/04/06 03:47:27;;;;;;;1.87;1.77;;;14.40;99.90;;;;;;5115664;28;20484;-66
2024/04/06 03:49:54;;;;;;;2.17;2.00;;;14.40;99.90;;;;;;5115850;28;20191;-66
2024/04/06 03:52:19;;;;;;;2.20;1.60;;;14.40;99.90;;;;;;5115761;28;20930;-66
2024/04/06 03:54:46;;;;;;;2.27;2.10;;;14.40;99.90;;;;;;5115538;28;20489;-66
2024/04/06 03:57:11;;;;;;;2.40;2.20;;;14.40;99.90;;;;;;5115859;28;20198;-67
2024/04/06 03:59:39;;;;;;;1.47;1.37;;;14.40;99.90;;;;;;5115838;28;20872;-67
2024/04/06 04:02:05;;;;;;;2.10;2.00;;;14.40;99.90;;;;;;5115681;28;20297;-66
2024/04/06 04:04:31;;;;;;;1.90;1.80;;;14.40;99.90;;;;;;5115638;28;20538;-66
2024/04/06 04:06:57;;;;;;;2.00;1.87;;;14.40;99.90;;;;;;5115561;28;20285;-67
2024/04/06 04:09:23;;;;;;;3.80;1.63;;;14.40;99.90;;;;;;5115354;28;20873;-66
2024/04/06 04:11:50;;;;;;;2.23;2.03;;;14.30;99.90;;;;;;5115581;28;20231;-66
2024/04/06 04:14:16;;;;;;;2.47;1.93;;;14.30;99.90;;;;;;5115369;28;20476;-66
2024/04/06 04:16:43;;;;;;;2.27;2.07;;;14.30;99.90;;;;;;5115352;28;20448;-66
2024/04/06 04:19:09;;;;;;;2.37;1.70;;;14.20;99.90;;;;;;5115318;28;20455;-66
2024/04/06 04:21:35;;;;;;;1.70;1.60;;;14.30;99.90;;;;;;5114828;28;20868;-66
2024/04/06 04:24:01;;;;;;;2.87;1.80;;;14.20;99.90;;;;;;5115066;28;20478;-66
2024/04/06 04:26:27;;;;;;;2.27;2.17;;;14.20;99.90;;;;;;5115274;28;20304;-66
2024/04/06 04:28:53;;;;;;;2.07;1.87;;;14.20;99.90;;;;;;5115179;28;20972;-67
2024/04/06 04:31:19;;;;;;;2.00;1.90;;;14.20;99.90;;;;;;5115045;28;20193;-66
2024/04/06 04:33:47;;;;;;;1.90;1.80;;;14.20;99.90;;;;;;5115061;28;20817;-66
2024/04/06 04:36:13;;;;;;;1.90;1.80;;;14.20;99.90;;;;;;5114801;28;20720;-66
2024/04/06 04:38:40;;;;;;;3.40;1.80;;;14.10;99.90;;;;;;5114838;28;20536;-66
2024/04/06 04:41:06;;;;;;;2.07;1.70;;;14.10;99.90;;;;;;5114994;28;20534;-66
2024/04/06 04:43:33;;;;;;;2.20;1.57;;;14.10;99.90;;;;;;5114880;28;20451;-67
2024/04/06 04:45:58;;;;;;;2.10;1.90;;;14.10;99.90;;;;;;5114557;28;20561;-66
2024/04/06 04:48:25;;;;;;;2.37;1.73;;;14.10;99.90;;;;;;5114733;28;20483;-66
2024/04/06 04:50:51;;;;;;;2.90;2.23;;;14.10;99.90;;;;;;5114552;28;20281;-66
2024/04/06 04:53:18;;;;;;;2.20;2.10;;;14.10;99.90;;;;;;5114791;28;20452;-66
2024/04/06 04:55:45;;;;;;;2.70;1.90;;;14.10;99.90;;;;;;5114574;28;20482;-66
2024/04/06 04:58:11;;;;;;;3.77;2.57;;;14.10;99.90;;;;;;5114567;28;20549;-66
2024/04/06 05:00:38;;;;;;;2.70;2.10;;;14.10;99.90;;;;;;5114467;28;20545;-66
2024/04/06 05:03:04;;;;;;;2.40;2.13;;;14.10;99.90;;;;;;5114370;28;20539;-66
2024/04/06 05:05:30;;;;;;;2.83;2.27;;;14.10;99.90;;;;;;5114280;27;20542;-66
2024/04/06 05:07:57;;;;;;;4.33;2.50;;;14.10;99.90;;;;;;5114159;28;20470;-67
2024/04/06 05:10:24;;;;;;;2.70;2.27;;;14.10;99.90;;;;;;5114324;28;20448;-66
2024/04/06 05:12:49;;;;;;;2.47;1.87;;;14.20;99.90;;;;;;5114259;28;20442;-66
2024/04/06 05:15:16;;;;;;;2.10;2.00;;;14.20;99.90;;;;;;5114113;28;20576;-67
2024/04/06 05:17:41;;;;;;;2.13;1.70;;;14.30;99.90;;;;;;5114116;28;20620;-66
2024/04/06 05:20:08;;;;;;;2.13;1.97;;;14.40;99.90;;;;;;5113982;28;20544;-66
2024/04/06 05:22:34;;;;;;;2.57;1.80;;;14.40;99.90;;;;;;5114156;28;20193;-66
2024/04/06 05:25:02;;;;;;;2.80;2.17;;;14.60;99.90;;;;;;5114136;28;20782;-66
2024/04/06 05:27:28;;;;;;;2.07;1.87;;;14.70;99.90;;;;;;5114129;27;20216;-67
2024/04/06 05:29:54;;;;;;;2.03;1.93;;;14.80;99.90;;;;;;5113880;28;20457;-66
2024/04/06 05:32:20;;;;;;;2.63;2.43;;;14.90;99.90;;;;;;5113844;28;20448;-66
2024/04/06 05:34:46;;;;;;;2.17;2.07;;;14.90;99.90;;;;;;5112966;28;20875;-66
2024/04/06 05:37:12;;;;;;;2.37;2.17;;;15.10;99.90;;;;;;5113706;28;20933;-67
2024/04/06 05:39:38;;;;;;;3.20;2.37;;;15.30;99.90;;;;;;5113865;28;20543;-66
2024/04/06 05:42:05;;;;;;;2.33;1.97;;;15.40;99.90;;;;;;5113792;28;20187;-66
2024/04/06 05:44:32;;;;;;;2.07;1.97;;;15.40;99.90;;;;;;5113707;28;20511;-66
2024/04/06 05:46:57;;;;;;;2.33;1.70;;;15.50;99.90;;;;;;5113446;28;20476;-66
2024/04/06 05:49:24;;;;;;;1.80;1.70;;;15.50;99.90;;;;;;5113395;28;20550;-66
2024/04/06 05:51:49;;;;;;;3.00;2.00;;;15.40;99.90;;;;;;5113757;28;20198;-66
2024/04/06 05:54:16;;;;;;;1.87;1.77;;;15.50;99.90;;;;;;5113562;28;20888;-67
2024/04/06 05:56:42;;;;;;;2.60;2.03;;;15.50;99.90;;;;;;5113585;28;20192;-67
2024/04/06 05:59:10;;;;;;;3.77;2.10;;;15.50;99.90;;;;;;5113498;28;20830;-66
2024/04/06 06:01:36;;;;;;;3.43;1.90;;;15.50;99.90;;;;;;5113427;28;20240;-66
2024/04/06 06:04:02;;;;;;;1.97;1.87;;;15.50;99.90;;;;;;5113378;28;20456;-67
2024/04/06 06:06:28;;;;;;;2.00;1.90;;;15.50;99.90;;;;;;5113603;28;20539;-66
2024/04/06 06:08:54;;;;;;;2.57;1.93;;;15.60;99.90;;;;;;5113537;28;20885;-66
2024/04/06 06:11:20;;;;;;;3.60;2.00;;;15.60;99.90;;;;;;5113413;28;20282;-67
2024/04/06 06:13:47;;;;;;;5.00;2.40;;;15.60;99.90;;;;;;5113311;28;20878;-67
2024/04/06 06:16:14;;;;;;;2.60;1.90;;;15.70;99.90;;;;;;5113139;28;20480;-67
2024/04/06 06:18:40;;;;;;;2.00;1.73;;;15.70;99.90;;;;;;5113508;28;20507;-66
2024/04/06 06:21:06;;;;;;;2.50;2.13;;;15.70;99.90;;;;;;5113405;28;20460;-67
2024/04/06 06:23:33;;;;;;;1.93;1.83;;;15.80;99.90;;;;;;5113336;28;20540;-66
2024/04/06 06:25:58;;;;;;;2.73;2.03;;;15.80;99.90;;;;;;5113324;28;20536;-67
2024/04/06 06:28:25;;;;;;;3.10;2.53;;;15.80;99.90;;;;;;5113245;28;20539;-66
2024/04/06 06:30:50;;;;;;;2.40;2.30;;;15.80;99.90;;;;;;5113172;28;20199;-67
2024/04/06 06:33:21;;;;;;;2.20;2.10;;;15.90;99.90;;;;;;5113416;28;20809;-67
2024/04/06 06:35:51;;;;;;;3.60;2.47;;;16.00;99.90;;;;;;5113468;28;20218;-67
2024/04/06 06:38:17;;;;;;;2.60;1.93;;;16.10;99.90;;;;;;5113244;28;20460;-66
2024/04/06 06:40:43;;;;;;;1.93;1.83;;;16.20;99.90;;;;;;5113158;28;20441;-67
2024/04/06 06:43:09;;;;;;;2.40;2.20;;;16.30;99.90;;;;;;5113081;28;20548;-67
2024/04/06 06:45:35;;;;;;;2.57;2.07;;;16.40;99.90;;;;;;5114641;28;20216;-67
2024/04/06 06:48:01;;;;;;;4.03;2.43;;;16.50;99.90;;;;;;5117476;28;20878;-66
2024/04/06 06:50:28;;;;;;;4.27;1.80;;;16.60;99.90;;;;;;5117094;28;20224;-67
2024/04/06 06:52:55;;;;;;;2.70;1.83;;;16.70;99.90;;;;;;5117060;28;20449;-67
2024/04/06 06:55:20;;;;;;;2.30;2.10;;;16.80;99.90;;;;;;5117006;28;20469;-67
2024/04/06 06:57:47;;;;;;;2.40;2.30;;;16.80;99.90;;;;;;5116781;28;20553;-67
2024/04/06 07:00:14;;;;;;;3.07;2.17;;;16.90;99.90;;;;;;5116746;28;20343;-67
2024/04/06 07:02:41;;;;;;;2.20;2.10;;;17.00;99.90;;;;;;5116924;28;20782;-67
2024/04/06 07:05:06;;;;;;;2.17;2.07;;;17.10;99.90;;;;;;5116528;28;20940;-67
2024/04/06 07:07:35;;;;;;;5.03;1.73;;;17.20;99.90;;;;;;5116728;28;20460;-67
2024/04/06 07:10:01;;;;;;;3.10;2.10;;;17.20;99.90;;;;;;5116710;28;20622;-67
2024/04/06 07:12:27;;;;;;;2.40;1.60;;;17.40;99.90;;;;;;5116545;28;20481;-67
2024/04/06 07:14:53;;;;;;;3.03;1.73;;;17.50;99.90;;;;;;5116291;28;20675;-67
2024/04/06 07:17:20;;;;;;;2.70;1.90;;;17.60;99.90;;;;;;5116445;28;20545;-67
2024/04/06 07:19:45;;;;;;;1.50;1.40;;;17.90;99.90;;;;;;5116459;28;20188;-68
2024/04/06 07:22:12;;;;;;;5.50;1.80;;;18.20;99.90;;;;;;5116598;28;20453;-67
2024/04/06 07:24:40;;;;;;;2.60;1.70;;;18.30;99.90;;;;;;5116336;28;20200;-67
2024/04/06 07:27:05;;;;;;;2.23;1.77;;;18.40;99.90;;;;;;5116222;28;20789;-67
2024/04/06 07:29:32;;;;;;;2.63;1.87;;;18.60;99.90;;;;;;5116115;28;20442;-67
2024/04/06 07:31:57;;;;;;;3.27;1.50;;;18.80;99.90;;;;;;5116284;28;20224;-67
2024/04/06 07:34:24;;;;;;;2.93;1.93;;;19.10;99.90;;;;;;5116266;28;20542;-67
2024/04/06 07:36:49;;;;;;;3.93;1.60;;;19.30;99.90;;;;;;5116039;28;20310;-67
2024/04/06 07:39:16;;;;;;;1.60;1.50;;;19.40;99.90;;;;;;5116076;28;20544;-67
2024/04/06 07:41:43;;;;;;;2.70;1.40;;;19.60;99.90;;;;;;5115720;28;20199;-67
2024/04/06 07:44:09;;;;;;;6.50;1.63;;;19.70;99.90;;;;;;5116071;28;20475;-67
2024/04/06 07:46:34;;;;;;;5.30;1.63;;;19.70;99.90;;;;;;5115634;28;20479;-67
2024/04/06 07:49:02;;;;;;;6.17;1.93;;;19.70;99.90;;;;;;5115700;28;20549;-67
2024/04/06 07:51:27;;;;;;;1.83;1.50;;;19.90;99.90;;;;;;5115835;28;20188;-67
2024/04/06 07:53:53;;;;;;;2.30;1.53;;;20.00;99.90;;;;;;5115732;28;20533;-67
2024/04/06 07:56:19;;;;;;;1.93;1.30;;;20.10;99.90;;;;;;5114883;28;20598;-67
2024/04/06 07:58:47;;;;;;;1.40;1.30;;;20.10;99.90;;;;;;5115578;28;20524;-67
2024/04/06 08:01:12;;;;;;;1.53;1.43;;;20.20;99.90;;;;;;5115651;28;20279;-67
2024/04/06 08:03:39;;;;;;;2.07;1.30;;;20.00;99.90;;;;;;5115729;28;20541;-67
2024/04/06 08:06:06;;;;;;;1.47;1.37;;;20.10;99.90;;;;;;5115549;28;20187;-67
2024/04/06 08:08:34;;;;;;;3.47;1.40;;;20.20;99.90;;;;;;5115465;28;20461;-67
2024/04/06 08:11:00;;;;;;;3.27;1.57;;;20.20;99.90;;;;;;5115324;28;20475;-67
2024/04/06 08:13:26;;;;;;;2.70;1.30;;;20.20;99.90;;;;;;5115527;28;20453;-67
2024/04/06 08:15:53;;;;;;;1.73;1.20;;;20.30;99.90;;;;;;5115495;28;20260;-67
2024/04/06 08:18:20;;;;;;;1.67;1.10;;;20.40;99.90;;;;;;5115394;28;20458;-67
2024/04/06 08:20:46;;;;;;;6.07;1.37;;;20.30;99.90;;;;;;5115202;28;20446;-68
2024/04/06 08:23:16;;;;;;;2.17;1.20;;;20.20;99.90;;;;;;5115265;28;20454;-67
2024/04/06 08:25:42;;;;;;;3.87;1.67;;;20.30;99.90;;;;;;5115023;28;20937;-67
2024/04/06 08:28:08;;;;;;;1.40;1.20;;;20.30;99.90;;;;;;5115200;28;20502;-67
2024/04/06 08:30:34;;;;;;;2.63;1.57;;;20.30;99.90;;;;;;5115011;28;20279;-67
2024/04/06 08:33:02;;;;;;;1.93;1.33;;;20.30;99.90;;;;;;5115028;28;20532;-67
2024/04/06 08:35:27;;;;;;;2.30;1.30;;;20.40;99.90;;;;;;5114827;28;20219;-67
2024/04/06 08:37:54;;;;;;;2.47;1.17;;;20.30;99.90;;;;;;5114733;28;20449;-67
2024/04/06 08:40:19;;;;;;;1.53;1.40;;;20.20;99.90;;;;;;5114767;28;20194;-67
2024/04/06 08:42:46;;;;;;;2.30;1.40;;;20.30;99.90;;;;;;5114923;27;20536;-67
2024/04/06 08:45:12;;;;;;;2.10;1.10;;;20.40;99.90;;;;;;5114774;28;20188;-67
2024/04/06 08:47:40;;;;;;;1.63;1.20;;;20.60;99.90;;;;;;5114437;28;20481;-67
2024/04/06 08:50:08;;;;;;;1.50;1.30;;;20.50;99.90;;;;;;5114662;28;20860;-67
2024/04/06 08:52:36;;;;;;;2.70;1.40;;;20.40;99.90;;;;;;5114405;28;20450;-67
2024/04/06 08:55:03;;;;;;;1.30;1.17;;;20.40;99.90;;;;;;5114572;28;20445;-67
2024/04/06 08:57:30;;;;;;;1.50;1.40;;;20.40;99.90;;;;;;5114583;28;20484;-67
2024/04/06 08:59:57;;;;;;;3.37;1.63;;;20.40;99.90;;;;;;5114486;28;20450;-67
2024/04/06 09:02:24;;;;;;;3.30;1.60;;;20.40;99.90;;;;;;5114375;28;20453;-67
2024/04/06 09:04:50;;;;;;;4.63;1.80;;;20.50;99.90;;;;;;5114269;27;20533;-67
2024/04/06 09:07:17;;;;;;;1.43;1.33;;;20.40;99.90;;;;;;5114156;28;20548;-67
2024/04/06 09:09:43;;;;;;;1.40;1.30;;;20.40;99.90;;;;;;5114391;28;20188;-67
2024/04/06 09:12:11;;;;;;;2.50;1.40;;;20.50;99.90;;;;;;5114368;27;21040;-67
2024/04/06 09:14:38;;;;;;;4.30;1.87;;;20.70;99.90;;;;;;5114208;28;20524;-67
2024/04/06 09:17:05;;;;;;;2.70;1.37;;;20.90;99.90;;;;;;5114023;28;20481;-67
2024/04/06 09:19:30;;;;;;;1.40;1.30;;;21.00;99.90;;;;;;5114104;28;20442;-67
2024/04/06 09:21:57;;;;;;;3.37;1.90;;;20.90;99.90;;;;;;5113954;28;20537;-68
2024/04/06 09:24:26;;;;;;;2.00;1.50;;;21.00;99.90;;;;;;5114210;28;20577;-67
2024/04/06 09:26:52;;;;;;;1.70;1.60;;;21.00;99.90;;;;;;5114013;28;20450;-67
2024/04/06 09:29:18;;;;;;;3.47;1.70;;;21.10;99.90;;;;;;5113955;28;20541;-67
2024/04/06 09:31:48;;;;;;;1.60;1.40;;;21.20;99.90;;;;;;5113884;28;20532;-67
2024/04/06 09:34:14;;;;;;;1.90;1.80;;;21.30;99.90;;;;;;5113622;28;20667;-67
2024/04/06 09:36:45;;;;;;;2.40;1.60;;;21.40;99.90;;;;;;5113543;28;20478;-67
2024/04/06 09:39:12;;;;;;;2.33;1.50;;;21.50;99.90;;;;;;5113847;28;20442;-67
2024/04/06 09:41:41;;;;;;;1.90;1.60;;;21.70;99.90;;;;;;5113738;28;20478;-68
2024/04/06 09:44:07;;;;;;;1.60;1.50;;;21.70;99.90;;;;;;5113680;28;20532;-67
2024/04/06 09:46:34;;;;;;;1.67;1.40;;;21.60;99.90;;;;;;5113442;28;20549;-67
2024/04/06 09:49:02;;;;;;;2.10;1.60;;;21.80;99.90;;;;;;5113471;28;20437;-67
2024/04/06 09:51:30;;;;;;;3.40;1.57;;;21.90;99.90;;;;;;5113710;28;20971;-67
2024/04/06 09:53:56;;;;;;;1.90;1.20;;;22.10;99.90;;;;;;5113500;28;20441;-67
2024/04/06 09:56:22;;;;;;;1.47;1.37;;;22.20;99.90;;;;;;5113552;28;20833;-67
2024/04/06 09:58:49;;;;;;;2.30;1.47;;;22.10;99.90;;;;;;5113395;28;20191;-67
2024/04/06 10:01:19;;;;;;;2.90;1.27;;;22.20;99.90;;;;;;5113397;28;20445;-67
2024/04/06 10:03:46;;;;;;;1.50;1.40;;;22.30;99.90;;;;;;5113768;28;20449;-68
2024/04/06 10:06:16;;;;;;;2.50;1.43;;;22.20;99.90;;;;;;5113497;28;20544;-67
2024/04/06 10:08:46;;;;;;;3.57;1.50;;;22.30;99.90;;;;;;5113455;28;20528;-67
2024/04/06 10:11:14;;;;;;;1.33;1.23;;;22.20;99.90;;;;;;5113423;28;20493;-67
2024/04/06 10:13:40;;;;;;;2.70;1.50;;;22.10;99.90;;;;;;5113375;28;20449;-68
2024/04/06 10:16:08;;;;;;;3.97;1.30;;;22.00;99.90;;;;;;5113121;28;20503;-68
2024/04/06 10:18:38;;;;;;;2.30;1.30;;;22.00;99.90;;;;;;5113520;28;20532;-67
2024/04/06 10:21:12;;;;;;;1.13;1.03;;;22.10;99.90;;;;;;5116041;28;20453;-68
2024/04/06 10:23:38;;;;;;;3.10;1.40;;;22.00;99.90;;;;;;5117493;28;20444;-67
2024/04/06 10:26:05;;;;;;;3.20;1.40;;;22.10;99.90;;;;;;5117386;28;20971;-67
2024/04/06 10:28:31;;;;;;;2.50;1.47;;;22.10;99.90;;;;;;5117183;28;20454;-68
2024/04/06 10:30:57;;;;;;;2.50;1.07;;;22.30;99.90;;;;;;5117569;28;20956;-67
2024/04/06 10:33:24;;;;;;;1.43;1.00;;;22.50;99.90;;;;;;5117446;27;20536;-67
2024/04/06 10:35:53;;;;;;;1.93;1.30;;;22.70;99.90;;;;;;5117141;28;20512;-68
2024/04/06 10:38:20;;;;;;;2.07;1.30;;;22.80;99.90;;;;;;5117217;28;20448;-68
2024/04/06 10:40:47;;;;;;;2.50;1.67;;;22.80;99.90;;;;;;5117119;28;20455;-68
2024/04/06 10:43:12;;;;;;;7.00;1.80;;;22.90;99.90;;;;;;5117111;28;20529;-68
2024/04/06 10:45:39;;;;;;;1.93;1.27;;;22.80;99.90;;;;;;5117064;27;20532;-67
2024/04/06 10:48:05;;;;;;;1.30;0.90;;;22.90;99.90;;;;;;5117149;28;20198;-67
2024/04/06 10:50:34;;;;;;;2.17;1.20;;;23.00;99.90;;;;;;5117028;28;20449;-68
2024/04/06 10:53:00;;;;;;;2.10;1.30;;;23.20;99.90;;;;;;5116881;28;20532;-68
2024/04/06 10:55:27;;;;;;;2.50;1.20;;;23.20;99.90;;;;;;5116742;28;20445;-68
2024/04/06 10:57:55;;;;;;;2.40;1.20;;;23.50;99.90;;;;;;5117022;28;20445;-68
2024/04/06 11:00:22;;;;;;;3.97;1.40;;;23.50;99.90;;;;;;5116729;28;20454;-68
2024/04/06 11:02:48;;;;;;;1.30;1.10;;;23.60;99.90;;;;;;5116796;28;20470;-68
2024/04/06 11:05:14;;;;;;;1.70;1.50;;;23.80;99.90;;;;;;5116721;28;20516;-68
2024/04/06 11:07:42;;;;;;;1.93;0.83;;;23.70;99.90;;;;;;5116695;28;20283;-68
2024/04/06 11:10:10;;;;;;;2.10;1.00;;;23.70;99.90;;;;;;5116357;28;20855;-68
2024/04/06 11:12:36;;;;;;;1.77;1.20;;;23.80;99.90;;;;;;5116786;28;20453;-68
2024/04/06 11:15:03;;;;;;;1.60;1.20;;;24.00;99.90;;;;;;5116688;28;20453;-68
2024/04/06 11:17:29;;;;;;;1.70;1.10;;;24.00;99.90;;;;;;5116449;28;20568;-68
2024/04/06 11:19:56;;;;;;;1.80;0.93;;;24.10;99.90;;;;;;5116508;28;20549;-68
2024/04/06 11:22:22;;;;;;;1.77;1.17;;;24.20;99.90;;;;;;5116383;28;20282;-68
2024/04/06 11:24:50;;;;;;;1.20;1.10;;;24.20;99.90;;;;;;5116249;28;20992;-68
2024/04/06 11:27:19;;;;;;;2.43;1.57;;;24.20;99.90;;;;;;5116449;28;20448;-68
2024/04/06 11:29:48;;;;;;;2.00;1.17;;;24.20;99.90;;;;;;5116362;28;20454;-68
2024/04/06 11:32:19;;;;;;;2.10;1.10;;;24.30;99.90;;;;;;5114942;28;20453;-68
2024/04/06 11:34:46;;;;;;;1.03;0.90;;;24.30;99.90;;;;;;5116189;28;20449;-68
2024/04/06 11:37:11;;;;;;;0.80;0.80;;;23.90;99.90;;;;;;5115981;28;20540;-68
2024/04/06 11:39:38;;;;;;;1.10;1.00;;;23.70;99.90;;;;;;5115941;28;20497;-68
2024/04/06 11:42:05;;;;;;;2.10;1.00;;;23.80;99.90;;;;;;5116149;28;20615;-68
2024/04/06 11:44:32;;;;;;;1.20;1.10;;;24.10;99.90;;;;;;5115711;28;21092;-68
2024/04/06 11:46:58;;;;;;;1.70;1.50;;;24.20;99.90;;;;;;5115725;28;20468;-68
2024/04/06 11:49:24;;;;;;;2.00;1.10;;;24.40;99.90;;;;;;5115805;28;20537;-68
2024/04/06 11:51:50;;;;;;;2.00;0.87;;;24.40;99.90;;;;;;5115683;28;20261;-68
2024/04/06 11:54:16;;;;;;;0.90;0.83;;;24.40;99.90;;;;;;5115909;28;20449;-68
2024/04/06 11:56:42;;;;;;;2.17;1.37;;;24.50;99.90;;;;;;5115757;28;20237;-68
2024/04/06 11:59:10;;;;;;;1.37;1.00;;;24.60;99.90;;;;;;5115705;28;20548;-68
2024/04/06 12:01:36;;;;;;;1.70;0.93;;;24.50;99.90;;;;;;5115633;28;20184;-68
2024/04/06 12:04:02;;;;;;;1.10;0.93;;;24.40;99.90;;;;;;5115532;28;20450;-69
2024/04/06 12:06:28;;;;;;;1.30;1.20;;;24.30;99.90;;;;;;5115413;28;20446;-68
2024/04/06 12:08:55;;;;;;;1.10;0.90;;;24.20;99.90;;;;;;5115652;28;21032;-69
2024/04/06 12:11:20;;;;;;;1.77;1.00;;;24.20;99.90;;;;;;5115504;28;20245;-68
2024/04/06 12:13:47;;;;;;;2.50;0.80;;;24.20;99.90;;;;;;5115169;28;20540;-68
2024/04/06 12:16:14;;;;;;;2.60;1.93;;;24.20;99.90;;;;;;5115257;28;20221;-68
2024/04/06 12:18:40;;;;;;;1.50;1.03;;;24.00;99.90;;;;;;5115340;28;20456;-68
2024/04/06 12:21:06;;;;;;;1.93;0.80;;;24.10;99.90;;;;;;5115040;28;20612;-68
2024/04/06 12:23:32;;;;;;;1.10;0.80;;;24.20;99.90;;;;;;5115366;28;20545;-68
2024/04/06 12:25:58;;;;;;;1.20;0.80;;;24.30;99.90;;;;;;5114983;28;20738;-68
2024/04/06 12:28:25;;;;;;;1.10;0.90;;;24.40;99.90;;;;;;5115161;28;20532;-68
2024/04/06 12:30:50;;;;;;;3.13;0.97;;;24.50;99.90;;;;;;5115026;28;20709;-68
2024/04/06 12:33:18;;;;;;;2.70;1.17;;;24.30;99.90;;;;;;5114959;28;20532;-69
2024/04/06 12:35:48;;;;;;;0.80;0.80;;;24.20;99.90;;;;;;5115071;28;20708;-68
2024/04/06 12:38:14;;;;;;;0.90;0.80;;;24.30;99.90;;;;;;5115009;28;20461;-68
2024/04/06 12:40:40;;;;;;;1.50;1.10;;;24.40;99.90;;;;;;5114727;28;20964;-68
2024/04/06 12:43:07;;;;;;;1.93;1.00;;;24.40;99.90;;;;;;5114533;28;20493;-68